Time;durP1;ratioP1;P1;durP2;ratioP2;P2;SDS_P1;SDS_P2;PMS_P1;PMS_P2;Temp;Humidity;BMP_temperature;BMP_pressure;BME280_temperature;BME280_humidity;BME280_pressure;Samples;Min_cycle;Max_cycle;Signal;HPM_P1;HPM_P2
2022/02/11 00:00:15;;;;;;;5.37;2.80;;;5.10;99.90;;;;;;4175570;28;20878;-77
2022/02/11 00:02:18;;;;;;;3.73;2.30;;;5.00;99.90;;;;;;4176324;28;20449;-77
2022/02/11 00:04:58;;;;;;;5.60;2.50;;;5.00;99.90;;;;;;4179645;28;20465;-78
2022/02/11 00:06:59;;;;;;;5.10;2.07;;;5.00;99.90;;;;;;4174393;28;20457;-77
2022/02/11 00:09:01;;;;;;;3.33;1.90;;;4.90;99.90;;;;;;4180219;28;20901;-78
2022/02/11 00:11:03;;;;;;;2.63;1.50;;;4.90;99.90;;;;;;4176201;28;20459;-78
2022/02/11 00:13:05;;;;;;;5.00;1.77;;;4.90;99.90;;;;;;4177011;28;20738;-78
2022/02/11 00:17:33;;;;;;;4.03;1.10;;;4.80;99.90;;;;;;4174133;28;20460;-78
2022/02/11 00:19:35;;;;;;;2.33;1.10;;;4.70;99.90;;;;;;4179795;28;20600;-78
2022/02/11 00:21:37;;;;;;;1.60;1.00;;;4.70;99.90;;;;;;4180116;28;20545;-78
2022/02/11 00:23:40;;;;;;;2.60;1.20;;;4.70;99.90;;;;;;4176657;28;20472;-78
2022/02/11 00:25:47;;;;;;;1.20;1.10;;;4.70;99.90;;;;;;4169738;28;20527;-77
2022/02/11 00:32:43;;;;;;;3.50;1.10;;;4.70;99.90;;;;;;4180003;28;20518;-80
2022/02/11 00:34:50;;;;;;;1.50;1.27;;;4.70;99.90;;;;;;4178902;28;20965;-80
2022/02/11 00:37:01;;;;;;;1.93;1.20;;;4.70;99.90;;;;;;4180651;28;20484;-80
2022/02/11 00:39:20;;;;;;;3.27;1.40;;;4.70;99.90;;;;;;4180030;28;20952;-80
2022/02/11 00:46:22;;;;;;;2.83;1.40;;;4.70;99.90;;;;;;4173673;28;20521;-81
2022/02/11 01:02:25;;;;;;;1.37;0.83;;;4.40;99.90;;;;;;4178301;28;20513;-80
2022/02/11 01:04:27;;;;;;;2.13;0.80;;;4.40;99.90;;;;;;4176241;28;20941;-80
2022/02/11 01:06:30;;;;;;;1.80;1.10;;;4.30;99.90;;;;;;4177803;28;20511;-80
2022/02/11 01:08:31;;;;;;;1.33;0.73;;;4.30;99.90;;;;;;4182549;28;20495;-80
2022/02/11 01:10:35;;;;;;;2.07;0.83;;;4.80;99.90;;;;;;4179073;28;20480;-80
2022/02/11 01:12:39;;;;;;;1.00;0.70;;;4.30;99.90;;;;;;4187624;28;20499;-80
2022/02/11 01:14:47;;;;;;;2.30;1.00;;;4.30;99.90;;;;;;4188747;28;20548;-81
2022/02/11 01:16:53;;;;;;;1.53;0.90;;;4.20;99.90;;;;;;4186612;28;20495;-80
2022/02/11 01:19:03;;;;;;;0.90;0.80;;;4.20;99.90;;;;;;4186188;28;20477;-80
2022/02/11 01:21:09;;;;;;;0.87;0.67;;;4.20;99.90;;;;;;4188101;28;20460;-81
2022/02/11 01:23:20;;;;;;;1.33;0.93;;;4.10;99.90;;;;;;4188000;28;20445;-80
2022/02/11 01:25:37;;;;;;;1.67;0.80;;;4.10;99.90;;;;;;4183730;28;20488;-80
2022/02/11 01:27:54;;;;;;;1.40;0.97;;;4.10;99.90;;;;;;4185727;28;20551;-80
2022/02/11 01:32:32;;;;;;;1.27;0.90;;;4.10;99.90;;;;;;4174139;28;20437;-80
2022/02/11 01:34:49;;;;;;;1.40;1.00;;;4.00;99.90;;;;;;4178763;28;20965;-80
2022/02/11 01:37:05;;;;;;;1.73;1.00;;;4.10;99.90;;;;;;4179829;28;20972;-81
2022/02/11 01:48:53;;;;;;;2.57;1.20;;;3.80;99.90;;;;;;4184893;28;20468;-80
2022/02/11 01:51:19;;;;;;;2.73;1.00;;;3.80;99.90;;;;;;4182696;28;20547;-80
2022/02/11 01:53:30;;;;;;;1.27;0.90;;;3.80;99.90;;;;;;4175667;28;20493;-81
2022/02/11 01:55:58;;;;;;;2.40;1.00;;;3.80;99.90;;;;;;4184048;28;20461;-79
2022/02/11 02:00:46;;;;;;;2.47;1.10;;;3.80;99.90;;;;;;4179695;28;20518;-80
2022/02/11 02:03:27;;;;;;;2.27;0.90;;;3.80;99.90;;;;;;4178837;28;20481;-79
2022/02/11 02:11:20;;;;;;;1.40;1.10;;;3.80;99.90;;;;;;4282920;27;20958;-79
2022/02/11 02:16:03;;;;;;;1.30;1.00;;;3.70;99.90;;;;;;4288372;27;20943;-79
2022/02/11 02:23:05;;;;;;;2.93;1.60;;;3.60;99.90;;;;;;4187568;28;20447;-78
2022/02/11 02:25:14;;;;;;;2.80;1.40;;;3.50;99.90;;;;;;4207544;28;20471;-79
2022/02/11 02:27:33;;;;;;;1.80;1.30;;;3.50;99.90;;;;;;4209766;28;20498;-79
2022/02/11 02:36:53;;;;;;;3.67;1.40;;;3.40;99.90;;;;;;4224446;28;20807;-79
2022/02/11 02:57:50;;;;;;;2.93;1.43;;;3.10;99.90;;;;;;4216709;28;20516;-81
2022/02/11 03:00:11;;;;;;;2.03;1.10;;;3.00;99.90;;;;;;4226545;28;20487;-79
2022/02/11 03:14:45;;;;;;;1.20;0.90;;;3.00;99.90;;;;;;4227507;28;20456;-79
2022/02/11 03:35:20;;;;;;;2.83;1.50;;;2.50;99.90;;;;;;4208988;28;20842;-80
2022/02/11 03:49:15;;;;;;;2.37;1.30;;;2.20;99.90;;;;;;4214141;28;20474;-80
2022/02/11 03:51:31;;;;;;;2.83;1.37;;;2.20;99.90;;;;;;4204160;28;20815;-80
2022/02/11 03:56:31;;;;;;;1.83;1.17;;;2.20;99.90;;;;;;4207148;28;20433;-80
2022/02/11 03:59:10;;;;;;;2.30;1.50;;;2.10;99.90;;;;;;4202519;28;20993;-79
2022/02/11 04:22:32;;;;;;;1.87;1.20;;;1.70;99.90;;;;;;4169317;28;20462;-80
2022/02/11 04:55:23;;;;;;;2.57;1.67;;;1.00;99.90;;;;;;4144340;28;20543;-81
2022/02/11 04:59:50;;;;;;;3.90;2.03;;;1.00;99.90;;;;;;4150584;28;20543;-80
2022/02/11 05:01:52;;;;;;;3.17;2.30;;;0.90;99.90;;;;;;4212335;28;20548;-80
2022/02/11 05:03:53;;;;;;;2.83;1.87;;;0.90;99.90;;;;;;4210599;28;20470;-80
2022/02/11 05:05:55;;;;;;;3.43;2.30;;;0.90;99.90;;;;;;4208125;28;20989;-80
2022/02/11 05:08:01;;;;;;;4.40;2.47;;;0.90;99.90;;;;;;4208504;28;21039;-80
2022/02/11 05:10:04;;;;;;;4.80;2.40;;;0.80;99.90;;;;;;4204444;28;20532;-80
2022/02/11 05:12:06;;;;;;;3.57;2.47;;;0.80;99.90;;;;;;4204786;28;20461;-79
2022/02/11 05:14:08;;;;;;;5.10;2.93;;;0.80;99.90;;;;;;4205116;28;20538;-80
2022/02/11 05:16:10;;;;;;;4.27;2.67;;;1.80;99.90;;;;;;4203848;28;21020;-80
2022/02/11 05:18:12;;;;;;;5.17;2.67;;;0.80;99.90;;;;;;4213947;28;20452;-81
2022/02/11 05:20:14;;;;;;;5.27;2.93;;;0.80;99.90;;;;;;4206906;28;20532;-80
2022/02/11 05:22:15;;;;;;;5.73;2.97;;;0.80;99.90;;;;;;4210877;28;20490;-81
2022/02/11 05:24:19;;;;;;;5.50;2.70;;;1.40;99.90;;;;;;4213857;28;20914;-80
2022/02/11 05:26:21;;;;;;;4.97;2.77;;;0.80;99.90;;;;;;4214714;28;20464;-80
2022/02/11 05:28:24;;;;;;;5.00;2.80;;;1.50;99.90;;;;;;4211385;28;20497;-80
2022/02/11 05:30:26;;;;;;;6.57;2.93;;;0.80;99.90;;;;;;4215409;28;20895;-81
2022/02/11 05:32:30;;;;;;;5.60;3.33;;;0.80;99.90;;;;;;4211010;28;20467;-79
2022/02/11 05:34:32;;;;;;;6.87;3.13;;;0.80;99.90;;;;;;4209190;28;20920;-80
2022/02/11 05:36:33;;;;;;;5.40;3.10;;;0.80;99.90;;;;;;4213794;28;20464;-81
2022/02/11 05:38:37;;;;;;;5.37;3.23;;;0.80;99.90;;;;;;4205769;28;20501;-80
2022/02/11 05:40:40;;;;;;;6.17;3.03;;;0.70;99.90;;;;;;4207991;28;20884;-79
2022/02/11 05:42:42;;;;;;;6.60;3.40;;;0.70;99.90;;;;;;4207536;28;20459;-80
2022/02/11 05:44:44;;;;;;;6.40;3.03;;;0.70;99.90;;;;;;4216477;28;20461;-81
2022/02/11 05:46:50;;;;;;;6.03;3.07;;;0.70;99.90;;;;;;4217662;28;20443;-81
2022/02/11 05:48:52;;;;;;;5.40;2.77;;;0.70;99.90;;;;;;4211421;28;20994;-81
2022/02/11 05:50:54;;;;;;;5.77;3.10;;;0.70;99.90;;;;;;4209417;28;20490;-82
2022/02/11 05:52:55;;;;;;;6.63;3.20;;;0.70;99.90;;;;;;4214583;28;20452;-80
2022/02/11 05:54:57;;;;;;;7.03;3.27;;;0.70;99.90;;;;;;4210284;28;20451;-80
2022/02/11 05:57:00;;;;;;;7.57;3.70;;;0.40;99.90;;;;;;4211154;28;20452;-81
2022/02/11 05:59:02;;;;;;;6.40;3.13;;;1.20;99.90;;;;;;4214757;28;20478;-80
2022/02/11 06:01:04;;;;;;;6.10;3.13;;;1.20;99.90;;;;;;4212107;28;20470;-82
2022/02/11 06:03:06;;;;;;;5.20;3.00;;;0.60;99.90;;;;;;4204156;28;20513;-82
2022/02/11 06:05:09;;;;;;;7.00;3.13;;;0.60;99.90;;;;;;4212136;28;20633;-82
2022/02/11 06:07:11;;;;;;;7.77;3.20;;;0.60;99.90;;;;;;4204053;28;20524;-82
2022/02/11 06:09:12;;;;;;;7.47;3.33;;;0.70;99.90;;;;;;4214082;28;20990;-82
2022/02/11 06:11:14;;;;;;;10.17;4.13;;;0.70;99.90;;;;;;4214685;28;20532;-82
2022/02/11 06:13:18;;;;;;;7.37;3.73;;;0.80;99.90;;;;;;4203777;28;20961;-82
2022/02/11 06:15:19;;;;;;;8.23;3.97;;;0.70;99.90;;;;;;4199203;28;20446;-82
2022/02/11 06:17:23;;;;;;;8.80;3.63;;;0.70;99.90;;;;;;4210252;28;20503;-80
2022/02/11 06:19:25;;;;;;;7.70;3.37;;;0.70;99.90;;;;;;4203886;28;20495;-81
2022/02/11 06:21:27;;;;;;;8.03;3.60;;;0.80;99.90;;;;;;4210134;28;21062;-82
2022/02/11 06:23:31;;;;;;;10.13;4.27;;;0.80;99.90;;;;;;4196897;28;20510;-79
2022/02/11 06:25:33;;;;;;;9.47;4.10;;;0.80;99.90;;;;;;4209026;28;21058;-83
2022/02/11 06:27:34;;;;;;;7.33;3.67;;;0.80;99.90;;;;;;4211978;28;21176;-82
2022/02/11 06:29:37;;;;;;;8.40;3.90;;;0.80;99.90;;;;;;4213531;28;20463;-82
2022/02/11 06:31:39;;;;;;;8.83;3.87;;;0.80;99.90;;;;;;4208718;28;20465;-81
2022/02/11 06:33:41;;;;;;;8.17;3.90;;;0.80;99.90;;;;;;4212524;28;20452;-80
2022/02/11 06:35:44;;;;;;;6.83;3.70;;;0.80;99.90;;;;;;4213575;28;20464;-83
2022/02/11 06:37:46;;;;;;;6.20;3.40;;;0.80;99.90;;;;;;4213047;28;20454;-82
2022/02/11 06:39:48;;;;;;;7.40;4.13;;;0.80;99.90;;;;;;4204659;28;20536;-83
2022/02/11 06:41:50;;;;;;;7.37;3.60;;;0.80;99.90;;;;;;4204898;28;20450;-82
2022/02/11 06:43:51;;;;;;;7.50;3.47;;;1.00;99.90;;;;;;4205377;28;20462;-81
2022/02/11 06:45:55;;;;;;;8.00;3.40;;;0.90;99.90;;;;;;4205862;28;20879;-81
2022/02/11 06:47:56;;;;;;;8.10;3.67;;;0.90;99.90;;;;;;4206926;28;20557;-81
2022/02/11 06:49:58;;;;;;;5.77;2.93;;;0.90;99.90;;;;;;4208777;28;20485;-81
2022/02/11 06:52:00;;;;;;;7.90;3.47;;;0.90;99.90;;;;;;4203256;28;20474;-80
2022/02/11 06:54:02;;;;;;;7.80;3.20;;;0.90;99.90;;;;;;4210826;28;20448;-80
2022/02/11 06:56:04;;;;;;;8.03;3.60;;;0.90;99.90;;;;;;4211948;28;20509;-82
2022/02/11 06:58:06;;;;;;;9.20;2.87;;;0.90;99.90;;;;;;4214058;28;20471;-80
2022/02/11 07:00:12;;;;;;;7.20;3.10;;;2.00;99.90;;;;;;4208283;28;20482;-83
2022/02/11 07:02:18;;;;;;;7.60;3.30;;;0.90;99.90;;;;;;4213101;28;20472;-82
2022/02/11 07:04:19;;;;;;;7.37;3.17;;;1.00;99.90;;;;;;4215783;28;20810;-82
2022/02/11 07:06:21;;;;;;;7.33;2.87;;;1.00;99.90;;;;;;4214146;28;20454;-82
2022/02/11 07:08:25;;;;;;;6.83;3.40;;;1.00;99.90;;;;;;4213718;28;20493;-82
2022/02/11 07:10:26;;;;;;;10.33;3.87;;;1.00;99.90;;;;;;4215934;28;20483;-82
2022/02/11 07:12:28;;;;;;;8.77;3.80;;;1.00;99.90;;;;;;4210301;28;20470;-82
2022/02/11 07:14:30;;;;;;;8.03;3.70;;;1.00;99.90;;;;;;4215006;28;20933;-82
2022/02/11 07:16:31;;;;;;;7.67;3.60;;;1.00;99.90;;;;;;4215677;28;20866;-81
2022/02/11 07:18:34;;;;;;;9.07;3.50;;;1.10;99.90;;;;;;4213275;28;20453;-83
2022/02/11 07:20:36;;;;;;;10.10;3.60;;;1.10;99.90;;;;;;4212080;28;20482;-82
2022/02/11 07:22:38;;;;;;;8.17;3.60;;;1.10;99.90;;;;;;4214469;28;20907;-83
2022/02/11 07:24:40;;;;;;;7.27;3.40;;;1.10;99.90;;;;;;4211448;28;20555;-83
2022/02/11 07:26:42;;;;;;;6.23;2.70;;;1.10;99.90;;;;;;4203110;28;20454;-81
2022/02/11 07:28:43;;;;;;;7.50;2.90;;;1.20;99.90;;;;;;4200081;28;20497;-83
2022/02/11 07:30:48;;;;;;;5.40;2.47;;;1.20;99.90;;;;;;4208860;28;20544;-83
2022/02/11 07:32:51;;;;;;;5.27;2.77;;;1.20;99.90;;;;;;4203461;28;20466;-84
2022/02/11 07:34:57;;;;;;;5.27;3.20;;;1.20;99.90;;;;;;4214653;28;20507;-83
2022/02/11 07:36:59;;;;;;;5.93;2.93;;;1.20;99.90;;;;;;4204599;28;20553;-81
2022/02/11 07:39:01;;;;;;;7.93;3.23;;;1.20;99.90;;;;;;4208165;28;20485;-80
2022/02/11 07:41:03;;;;;;;5.40;2.97;;;1.20;99.90;;;;;;4208192;28;20482;-85
2022/02/11 07:43:05;;;;;;;5.23;2.70;;;1.50;99.90;;;;;;4210326;28;20453;-79
2022/02/11 07:45:08;;;;;;;6.27;3.00;;;1.20;99.90;;;;;;4211004;28;20447;-82
2022/02/11 07:47:09;;;;;;;5.07;2.73;;;1.20;99.90;;;;;;4207560;28;20469;-81
2022/02/11 07:49:11;;;;;;;6.37;2.97;;;1.20;99.90;;;;;;4207903;28;20498;-82
2022/02/11 07:51:14;;;;;;;7.23;2.93;;;1.20;99.90;;;;;;4207357;28;20468;-81
2022/02/11 07:53:16;;;;;;;6.00;2.87;;;2.20;99.90;;;;;;4205008;28;20457;-83
2022/02/11 07:55:18;;;;;;;8.60;3.03;;;1.10;99.90;;;;;;4208693;28;20587;-80
2022/02/11 07:57:20;;;;;;;6.00;3.03;;;1.10;99.90;;;;;;4204143;28;20466;-82
2022/02/11 07:59:22;;;;;;;5.87;2.90;;;1.10;99.90;;;;;;4202223;28;20563;-81
2022/02/11 08:01:23;;;;;;;5.43;2.77;;;1.30;99.90;;;;;;4203615;28;21018;-81
2022/02/11 08:03:25;;;;;;;6.47;3.20;;;1.10;99.90;;;;;;4200105;28;20454;-81
2022/02/11 08:05:27;;;;;;;5.10;2.80;;;1.20;99.90;;;;;;4207117;28;20467;-83
2022/02/11 08:07:30;;;;;;;6.10;3.23;;;1.20;99.90;;;;;;4207324;28;20476;-82
2022/02/11 08:09:32;;;;;;;5.90;3.17;;;1.20;99.90;;;;;;4206881;28;20505;-82
2022/02/11 08:11:34;;;;;;;5.90;3.03;;;1.20;99.90;;;;;;4204066;28;20482;-83
2022/02/11 08:13:36;;;;;;;8.73;3.43;;;1.20;99.90;;;;;;4206426;28;20982;-82
2022/02/11 08:15:38;;;;;;;7.50;3.50;;;1.20;99.90;;;;;;4207772;28;20456;-81
2022/02/11 08:17:42;;;;;;;7.17;3.17;;;1.20;99.90;;;;;;4205213;28;20809;-82
2022/02/11 08:19:43;;;;;;;6.50;3.27;;;1.20;99.90;;;;;;4228327;22;20572;-77
2022/02/11 08:21:45;;;;;;;6.50;3.27;;;1.30;99.90;;;;;;4225334;28;20963;-78
2022/02/11 08:23:48;;;;;;;5.17;3.13;;;1.30;99.90;;;;;;4225468;28;20588;-78
2022/02/11 08:25:50;;;;;;;7.53;3.40;;;1.30;99.90;;;;;;4225150;28;20821;-79
2022/02/11 08:27:54;;;;;;;7.53;3.93;;;1.40;99.90;;;;;;4224829;28;20497;-78
2022/02/11 08:29:56;;;;;;;8.87;4.00;;;1.40;99.90;;;;;;4223467;28;20494;-78
2022/02/11 08:31:58;;;;;;;7.23;3.80;;;1.40;99.90;;;;;;4222778;28;20926;-78
2022/02/11 08:33:59;;;;;;;7.10;3.70;;;1.40;99.90;;;;;;4222349;28;20460;-79
2022/02/11 08:36:01;;;;;;;8.57;4.20;;;1.40;99.90;;;;;;4224710;28;21113;-79
2022/02/11 08:38:03;;;;;;;9.27;4.27;;;1.50;99.90;;;;;;4222644;28;20966;-78
2022/02/11 08:40:08;;;;;;;7.53;4.00;;;1.50;99.90;;;;;;4222675;28;21134;-79
2022/02/11 08:42:10;;;;;;;7.33;3.97;;;1.50;99.90;;;;;;4223960;28;20938;-78
2022/02/11 08:44:12;;;;;;;8.20;4.07;;;1.50;99.90;;;;;;4223708;28;21058;-78
2022/02/11 08:46:14;;;;;;;9.87;4.00;;;1.50;99.90;;;;;;4224171;28;20468;-79
2022/02/11 08:48:16;;;;;;;8.10;3.83;;;1.50;99.90;;;;;;4221716;28;20493;-79
2022/02/11 08:50:19;;;;;;;12.00;4.70;;;1.60;99.90;;;;;;4224378;28;20899;-78
2022/02/11 08:52:25;;;;;;;10.00;4.20;;;1.60;99.90;;;;;;4223736;28;20990;-79
2022/02/11 08:54:27;;;;;;;9.10;4.33;;;1.70;99.90;;;;;;4223834;28;20458;-79
2022/02/11 08:56:30;;;;;;;10.00;4.53;;;1.70;99.90;;;;;;4225081;28;20480;-79
2022/02/11 08:58:32;;;;;;;7.90;4.10;;;1.80;99.90;;;;;;4222593;28;20962;-79
2022/02/11 09:00:34;;;;;;;6.93;4.20;;;1.90;99.90;;;;;;4223734;28;20481;-79
2022/02/11 09:02:35;;;;;;;7.37;3.90;;;2.00;99.90;;;;;;4225066;28;20485;-78
2022/02/11 09:04:39;;;;;;;9.67;4.37;;;2.10;99.90;;;;;;4222872;28;20518;-79
2022/02/11 09:06:43;;;;;;;11.63;4.20;;;2.10;99.90;;;;;;4222548;28;21016;-79
2022/02/11 09:08:45;;;;;;;9.43;4.17;;;2.20;99.90;;;;;;4221247;28;20519;-78
2022/02/11 09:10:48;;;;;;;5.73;3.83;;;2.20;99.90;;;;;;4221475;28;20497;-79
2022/02/11 09:12:51;;;;;;;6.43;3.70;;;2.20;99.90;;;;;;4224089;28;20466;-79
2022/02/11 09:14:53;;;;;;;8.03;4.13;;;2.20;99.90;;;;;;4223314;28;20470;-79
2022/02/11 09:16:55;;;;;;;10.53;4.60;;;2.50;99.90;;;;;;4223823;28;20980;-79
2022/02/11 09:18:56;;;;;;;6.33;3.73;;;2.30;99.90;;;;;;4222544;28;20463;-79
2022/02/11 09:20:58;;;;;;;7.40;4.00;;;2.30;99.90;;;;;;4224614;28;20466;-79
2022/02/11 09:23:00;;;;;;;7.83;3.87;;;2.30;99.90;;;;;;4223426;28;20477;-78
2022/02/11 09:25:03;;;;;;;8.20;4.50;;;2.30;99.90;;;;;;4224243;28;20974;-79
2022/02/11 09:27:05;;;;;;;12.80;4.33;;;2.40;99.90;;;;;;4224289;28;20472;-78
2022/02/11 09:29:09;;;;;;;7.30;3.90;;;2.40;99.90;;;;;;4223648;28;20490;-79
2022/02/11 09:31:11;;;;;;;8.37;4.23;;;2.50;99.90;;;;;;4222474;28;20458;-78
2022/02/11 09:33:13;;;;;;;9.50;3.90;;;2.40;99.90;;;;;;4224982;28;20457;-79
2022/02/11 09:35:16;;;;;;;7.43;3.97;;;2.40;99.90;;;;;;4223915;28;21338;-79
2022/02/11 09:37:18;;;;;;;7.97;4.57;;;2.40;99.90;;;;;;4222702;28;20458;-80
2022/02/11 09:39:20;;;;;;;12.00;4.20;;;2.40;99.90;;;;;;4223417;28;20489;-80
2022/02/11 09:41:22;;;;;;;6.90;3.80;;;2.40;99.90;;;;;;4223310;28;20473;-79
2022/02/11 09:43:26;;;;;;;7.83;3.83;;;2.50;99.90;;;;;;4224630;28;20483;-80
2022/02/11 09:45:29;;;;;;;6.47;3.70;;;2.50;99.90;;;;;;4223422;28;20472;-80
2022/02/11 09:47:31;;;;;;;7.50;3.93;;;2.50;99.90;;;;;;4224741;28;20518;-80
2022/02/11 09:49:33;;;;;;;8.97;3.90;;;2.50;99.90;;;;;;4222942;28;20494;-80
2022/02/11 09:51:35;;;;;;;12.23;4.20;;;2.60;99.90;;;;;;4225180;28;20515;-80
2022/02/11 09:53:37;;;;;;;10.57;4.43;;;2.60;99.90;;;;;;4224974;28;20970;-80
2022/02/11 09:55:40;;;;;;;7.70;3.50;;;2.70;99.90;;;;;;4222944;28;20837;-80
2022/02/11 09:57:42;;;;;;;8.90;3.73;;;2.70;99.90;;;;;;4224084;28;20454;-80
2022/02/11 09:59:44;;;;;;;6.03;3.83;;;2.80;99.90;;;;;;4224362;28;20478;-80
2022/02/11 10:01:48;;;;;;;7.97;3.77;;;2.80;99.90;;;;;;4222696;28;20978;-80
2022/02/11 10:04:08;;;;;;;7.20;3.87;;;2.80;99.90;;;;;;4222440;28;20454;-80
2022/02/11 10:06:10;;;;;;;7.83;3.87;;;2.90;99.90;;;;;;4224155;28;21048;-80
2022/02/11 10:08:12;;;;;;;7.53;3.73;;;2.90;99.90;;;;;;4223292;28;20458;-80
2022/02/11 10:10:18;;;;;;;6.53;3.97;;;3.00;99.90;;;;;;4222222;28;20477;-80
2022/02/11 10:12:21;;;;;;;8.57;4.17;;;3.00;99.90;;;;;;4226670;28;20447;-80
2022/02/11 10:14:26;;;;;;;7.93;3.80;;;3.10;99.90;;;;;;4225508;28;20523;-80
2022/02/11 10:16:31;;;;;;;6.97;3.87;;;3.10;99.90;;;;;;4222779;28;20470;-80
2022/02/11 10:18:34;;;;;;;10.60;3.73;;;3.20;99.90;;;;;;4224856;28;20990;-80
2022/02/11 10:20:37;;;;;;;8.87;3.60;;;3.20;99.90;;;;;;4222925;28;20498;-80
2022/02/11 10:22:39;;;;;;;9.50;4.00;;;3.30;99.90;;;;;;4225822;28;20457;-80
2022/02/11 10:24:41;;;;;;;9.40;3.70;;;3.40;99.90;;;;;;4222200;28;20997;-80
2022/02/11 10:26:48;;;;;;;7.90;4.07;;;3.10;99.90;;;;;;4224588;28;20863;-80
2022/02/11 10:28:51;;;;;;;7.03;3.83;;;3.40;99.90;;;;;;4227223;28;20492;-80
2022/02/11 10:31:07;;;;;;;7.17;3.83;;;3.40;99.90;;;;;;4228935;28;20481;-80
2022/02/11 10:33:09;;;;;;;6.83;3.90;;;3.50;99.90;;;;;;4228472;28;20860;-80
2022/02/11 10:35:14;;;;;;;5.80;4.00;;;3.50;99.90;;;;;;4224960;28;20474;-80
2022/02/11 10:37:16;;;;;;;6.63;4.00;;;3.60;99.90;;;;;;4227013;28;20496;-80
2022/02/11 10:39:20;;;;;;;6.00;3.40;;;3.60;99.90;;;;;;4226448;28;20478;-81
2022/02/11 10:41:22;;;;;;;4.57;2.93;;;3.60;99.90;;;;;;4229249;28;20457;-81
2022/02/11 10:43:26;;;;;;;7.50;3.93;;;3.60;99.90;;;;;;4227919;28;20466;-80
2022/02/11 10:45:31;;;;;;;6.83;3.87;;;3.60;99.90;;;;;;4228127;28;20465;-79
2022/02/11 10:47:33;;;;;;;9.53;4.27;;;3.70;99.90;;;;;;4226209;28;20458;-80
2022/02/11 10:49:36;;;;;;;9.90;4.03;;;3.70;99.90;;;;;;4227028;28;20498;-81
2022/02/11 10:51:42;;;;;;;5.47;3.63;;;3.70;99.90;;;;;;4230124;28;20454;-81
2022/02/11 10:53:44;;;;;;;7.97;3.43;;;3.70;99.90;;;;;;4229837;28;20450;-81
2022/02/11 10:55:50;;;;;;;8.40;3.40;;;3.70;99.90;;;;;;4227818;28;20470;-81
2022/02/11 10:57:55;;;;;;;6.33;3.63;;;3.70;99.90;;;;;;4229224;28;21034;-80
2022/02/11 10:59:57;;;;;;;9.67;3.50;;;3.40;99.90;;;;;;4227971;28;20503;-80
2022/02/11 11:02:04;;;;;;;10.93;3.90;;;3.70;99.90;;;;;;4228469;28;20465;-80
2022/02/11 11:04:05;;;;;;;7.30;3.77;;;3.90;99.90;;;;;;4229436;28;20519;-82
2022/02/11 11:06:10;;;;;;;9.00;3.47;;;3.80;99.90;;;;;;4229613;28;20511;-81
2022/02/11 11:08:15;;;;;;;5.40;3.10;;;3.80;99.90;;;;;;4224099;28;20458;-81
2022/02/11 11:10:18;;;;;;;11.40;4.20;;;4.30;99.90;;;;;;4227118;28;20528;-81
2022/02/11 11:12:25;;;;;;;5.87;3.47;;;3.80;99.90;;;;;;4228006;28;20458;-81
2022/02/11 11:14:28;;;;;;;5.83;3.50;;;3.80;99.90;;;;;;4227006;28;20458;-81
2022/02/11 11:16:33;;;;;;;9.13;3.63;;;3.80;99.90;;;;;;4227787;28;20523;-82
2022/02/11 11:18:38;;;;;;;8.70;3.30;;;3.80;99.90;;;;;;4227003;28;20454;-81
2022/02/11 11:20:41;;;;;;;8.33;3.50;;;3.80;99.90;;;;;;4228596;28;20497;-81
2022/02/11 11:22:47;;;;;;;6.30;3.00;;;3.70;99.90;;;;;;4228411;28;21425;-81
2022/02/11 11:24:55;;;;;;;6.50;3.93;;;3.80;99.90;;;;;;4229062;28;21064;-82
2022/02/11 11:26:58;;;;;;;7.23;3.23;;;3.80;99.90;;;;;;4228997;28;20450;-79
2022/02/11 11:29:07;;;;;;;7.70;3.10;;;3.90;99.90;;;;;;4228548;28;20576;-81
2022/02/11 11:31:14;;;;;;;7.23;3.57;;;3.90;99.90;;;;;;4228332;28;20446;-80
2022/02/11 11:33:23;;;;;;;4.93;2.80;;;4.00;99.90;;;;;;4226486;28;20459;-80
2022/02/11 11:35:25;;;;;;;8.10;3.83;;;3.90;99.90;;;;;;4228866;28;20975;-81
2022/02/11 11:37:27;;;;;;;7.07;3.43;;;3.90;99.90;;;;;;4227238;28;20458;-81
2022/02/11 11:39:29;;;;;;;5.37;2.80;;;3.80;99.90;;;;;;4228972;28;20506;-81
2022/02/11 11:41:35;;;;;;;7.07;2.97;;;3.90;99.90;;;;;;4229117;28;20543;-81
2022/02/11 11:43:41;;;;;;;5.17;2.93;;;3.90;99.90;;;;;;4229146;28;20462;-80
2022/02/11 11:45:43;;;;;;;4.97;2.90;;;3.90;99.90;;;;;;4228957;28;20771;-80
2022/02/11 11:47:45;;;;;;;7.23;3.13;;;4.00;99.90;;;;;;4223700;28;21371;-81
2022/02/11 11:49:53;;;;;;;6.83;2.93;;;4.00;99.90;;;;;;4228149;28;20489;-81
2022/02/11 11:52:06;;;;;;;4.83;2.67;;;4.00;99.90;;;;;;4226809;28;20977;-83
2022/02/11 11:54:26;;;;;;;4.73;2.97;;;4.00;99.90;;;;;;4227314;28;20997;-83
2022/02/11 11:56:34;;;;;;;7.33;3.37;;;4.00;99.90;;;;;;4226607;28;20466;-81
2022/02/11 11:58:48;;;;;;;6.27;3.33;;;4.00;99.90;;;;;;4226331;28;20991;-82
2022/02/11 12:01:01;;;;;;;9.87;3.80;;;4.00;99.90;;;;;;4225765;28;20470;-81
2022/02/11 12:03:02;;;;;;;6.53;3.50;;;4.10;99.90;;;;;;4224077;28;20462;-81
2022/02/11 12:05:06;;;;;;;8.93;4.03;;;4.30;99.90;;;;;;4223806;28;20462;-81
2022/02/11 12:07:09;;;;;;;7.43;4.60;;;4.10;99.90;;;;;;4227076;28;20458;-84
2022/02/11 12:09:11;;;;;;;7.63;4.10;;;4.50;99.90;;;;;;4226064;28;20457;-82
2022/02/11 12:11:13;;;;;;;7.73;4.00;;;4.10;99.90;;;;;;4227128;28;20496;-80
2022/02/11 12:13:17;;;;;;;7.00;3.73;;;3.90;99.90;;;;;;4226494;28;20461;-81
2022/02/11 12:15:19;;;;;;;8.77;3.83;;;4.20;99.90;;;;;;4226120;28;20519;-80
2022/02/11 12:17:22;;;;;;;7.90;3.53;;;4.20;99.90;;;;;;4226973;28;20481;-83
2022/02/11 12:19:25;;;;;;;7.27;3.20;;;4.20;99.90;;;;;;4226604;28;20482;-81
2022/02/11 12:21:27;;;;;;;9.80;3.57;;;4.20;99.90;;;;;;4226743;28;20470;-81
2022/02/11 12:28:10;;;;;;;7.90;3.60;;;4.20;99.90;;;;;;4231204;28;20445;-82
2022/02/11 12:30:18;;;;;;;6.10;3.50;;;4.30;99.90;;;;;;4231565;28;20644;-83
2022/02/11 12:32:21;;;;;;;4.03;2.70;;;4.30;99.90;;;;;;4233972;28;20501;-82
2022/02/11 12:34:24;;;;;;;5.43;3.00;;;4.30;99.90;;;;;;4232524;28;20466;-83
2022/02/11 12:36:26;;;;;;;6.33;3.00;;;4.30;99.90;;;;;;4233500;28;20542;-83
2022/02/11 12:38:28;;;;;;;4.60;2.53;;;4.40;99.90;;;;;;4233633;28;20442;-80
2022/02/11 12:40:32;;;;;;;5.77;3.00;;;4.40;99.90;;;;;;4234017;28;20910;-81
2022/02/11 12:42:35;;;;;;;6.50;2.73;;;4.40;99.90;;;;;;4227421;28;20459;-82
2022/02/11 12:44:38;;;;;;;4.23;2.23;;;4.50;99.90;;;;;;4230781;28;20486;-82
2022/02/11 12:46:41;;;;;;;6.27;2.20;;;4.50;99.90;;;;;;4226993;28;20461;-80
2022/02/11 12:48:46;;;;;;;5.37;2.17;;;4.40;99.90;;;;;;4227014;28;21229;-82
2022/02/11 12:50:53;;;;;;;4.77;2.30;;;4.50;99.90;;;;;;4226372;28;20490;-81
2022/02/11 12:52:57;;;;;;;3.57;2.10;;;4.50;99.90;;;;;;4227478;28;20491;-80
2022/02/11 12:55:04;;;;;;;4.87;2.00;;;4.40;99.90;;;;;;4227097;28;20465;-80
2022/02/11 12:57:08;;;;;;;3.47;2.10;;;4.40;99.90;;;;;;4227038;28;20500;-83
2022/02/11 12:59:10;;;;;;;3.50;2.13;;;4.40;99.90;;;;;;4227342;28;20531;-81
2022/02/11 13:01:13;;;;;;;4.53;2.50;;;4.40;99.90;;;;;;4227276;28;20954;-81
2022/02/11 13:03:18;;;;;;;5.93;2.47;;;4.10;99.90;;;;;;4227086;28;20553;-82
2022/02/11 13:05:23;;;;;;;4.67;2.50;;;4.30;99.90;;;;;;4223420;28;20474;-80
2022/02/11 13:07:25;;;;;;;7.97;2.67;;;4.20;99.90;;;;;;4225129;28;20458;-83
2022/02/11 13:09:27;;;;;;;7.23;2.80;;;4.10;99.90;;;;;;4225771;28;20998;-80
2022/02/11 13:11:29;;;;;;;4.67;2.17;;;4.00;99.90;;;;;;4224634;28;20902;-81
2022/02/11 13:13:37;;;;;;;4.83;2.47;;;3.90;99.90;;;;;;4224302;28;20455;-80
2022/02/11 13:15:41;;;;;;;7.47;2.77;;;3.90;99.90;;;;;;4226390;28;20470;-80
2022/02/11 13:17:45;;;;;;;3.57;2.50;;;3.90;99.90;;;;;;4228625;28;20482;-81
2022/02/11 13:19:50;;;;;;;7.33;2.50;;;3.80;99.90;;;;;;4227070;28;21063;-80
2022/02/11 13:21:52;;;;;;;5.97;2.83;;;3.80;99.90;;;;;;4226157;28;20459;-81
2022/02/11 13:23:54;;;;;;;6.17;2.80;;;3.70;99.90;;;;;;4224798;28;20968;-81
2022/02/11 13:25:58;;;;;;;7.90;3.00;;;3.70;99.90;;;;;;4223824;28;20462;-83
2022/02/11 13:28:07;;;;;;;7.77;3.17;;;3.70;99.90;;;;;;4226725;28;20462;-82
2022/02/11 13:30:10;;;;;;;4.97;2.57;;;3.70;99.90;;;;;;4226299;28;20599;-83
2022/02/11 13:32:12;;;;;;;8.00;3.10;;;3.70;99.90;;;;;;4227502;28;20458;-80
2022/02/11 13:34:14;;;;;;;4.23;2.23;;;3.70;99.90;;;;;;4227843;28;20474;-83
2022/02/11 13:36:26;;;;;;;4.67;2.40;;;3.60;99.90;;;;;;4229249;28;20484;-82
2022/02/11 13:38:29;;;;;;;5.47;2.10;;;3.60;99.90;;;;;;4228154;28;21053;-82
2022/02/11 13:40:31;;;;;;;6.13;1.90;;;3.60;99.90;;;;;;4227873;28;20535;-83
2022/02/11 13:42:33;;;;;;;5.53;2.10;;;3.60;99.90;;;;;;4227355;28;20555;-83
2022/02/11 13:44:34;;;;;;;3.73;1.83;;;3.60;99.90;;;;;;4227264;28;20481;-82
2022/02/11 13:46:37;;;;;;;4.50;1.90;;;3.60;99.90;;;;;;4226173;28;20484;-83
2022/02/11 13:48:52;;;;;;;3.57;1.60;;;3.60;99.90;;;;;;4225413;28;20817;-83
2022/02/11 13:51:05;;;;;;;8.43;2.07;;;3.70;99.90;;;;;;4227101;28;20506;-83
2022/02/11 13:53:11;;;;;;;4.53;1.80;;;3.70;99.90;;;;;;4225033;28;20461;-83
2022/02/11 13:55:13;;;;;;;2.37;1.30;;;3.70;99.90;;;;;;4224855;28;20958;-83
2022/02/11 13:57:22;;;;;;;4.00;1.57;;;3.70;99.90;;;;;;4221371;28;20860;-83
2022/02/11 13:59:30;;;;;;;2.70;1.30;;;3.70;99.90;;;;;;4223485;28;20473;-83